To NAV CANADA Home Page Login to a new session Search on AWWS site Disclaimer Vers la page française équivalente Tips FAQ What's new on the site To the Forecasts and Observations / NOTAM section To "File a Flight Plan" website Publications and other links Update of the User's profile FIC Telephone Numbers My Weather Data Folder Route Weather Data Regional Weather Data Local Weather Data To the Forecasts and Observations / NOTAM section
Request Generated 04/24/2019 at 16:17:07 UTC . Weather information available at that time is displayed.

METAR/TAF

NAIN/NL    

METAR CYDP 241600Z 05010KT 15SM SKC M04/M13 A3016 RMK WND ESTD SLP215=
METAR CYDP 241500Z 30002KT 15SM SKC M05/M16 A3016 RMK SLP216=
METAR CYDP 241400Z 32005KT 15SM SKC M07/M15 A3018 RMK WND ESTD SLP221=

TAF CYDP 241338Z 2414/2423 VRB03KT P6SM SKC
BECMG 2414/2416 30008KT
BECMG 2416/2418 06006KT
FM242000 10008KT P6SM SKC
RMK NXT FCST BY 242000Z=
Your time UTC time
Weather data provided by Environment Canada and NAV CANADA